X  Zatvori METAR podaci zračne luke     EIDW Dublin Airport
Temperatura
17°C Temperatura
10°C Točka rosišta
64% Vlaga



Vjetar
27 KM/S
17 MPS
8 M/S
15 Čvorovi



270°
Z
Trenutna situacija

Djelimično oblačno Djelimično oblačno
Tlak zraka 1020.92 (hPa) - 30.15 (inHg)
Vidljivost 6.2 (milje) - 10 (km)
Zračna luka
Kôd zračne luke EIDW

Lokacija: Dublin Airport
Udaljenost: 17 (km)

Metar:
EIDW 031330Z 27015KT 230V290 9999 FEW016 BKN040 17/10 Q1021 NOSIG

Vrijeme: 03-07-2022 14:30 IST